sensor_id;sensor_type;location;lat;lon;timestamp;temperature;humidity
53776;DHT22;44276;49.534;6.378;2023-08-06T00:01:43;14.20;99.90
53776;DHT22;44276;49.534;6.378;2023-08-06T00:04:11;14.20;99.90
53776;DHT22;44276;49.534;6.378;2023-08-06T00:06:40;14.20;99.90
53776;DHT22;44276;49.534;6.378;2023-08-06T00:09:08;14.30;99.90
53776;DHT22;44276;49.534;6.378;2023-08-06T00:11:36;14.30;99.90
53776;DHT22;44276;49.534;6.378;2023-08-06T00:14:04;14.30;99.90
53776;DHT22;44276;49.534;6.378;2023-08-06T00:16:34;14.30;99.90
53776;DHT22;44276;49.534;6.378;2023-08-06T00:19:02;14.40;99.90
53776;DHT22;44276;49.534;6.378;2023-08-06T00:21:30;14.40;99.90
53776;DHT22;44276;49.534;6.378;2023-08-06T00:23:59;14.40;99.90
53776;DHT22;44276;49.534;6.378;2023-08-06T00:26:27;14.40;99.90
53776;DHT22;44276;49.534;6.378;2023-08-06T00:28:55;14.30;99.90
53776;DHT22;44276;49.534;6.378;2023-08-06T00:31:23;14.30;99.90
53776;DHT22;44276;49.534;6.378;2023-08-06T00:33:53;14.30;99.90
53776;DHT22;44276;49.534;6.378;2023-08-06T00:36:21;14.30;99.90
53776;DHT22;44276;49.534;6.378;2023-08-06T00:38:49;14.30;99.90
53776;DHT22;44276;49.534;6.378;2023-08-06T00:41:18;14.30;99.90
53776;DHT22;44276;49.534;6.378;2023-08-06T00:43:46;14.20;99.90
53776;DHT22;44276;49.534;6.378;2023-08-06T00:46:14;14.20;99.90
53776;DHT22;44276;49.534;6.378;2023-08-06T00:48:43;14.20;99.90
53776;DHT22;44276;49.534;6.378;2023-08-06T00:51:13;14.10;99.90
53776;DHT22;44276;49.534;6.378;2023-08-06T00:53:43;14.20;99.90
53776;DHT22;44276;49.534;6.378;2023-08-06T00:56:13;14.10;99.90
53776;DHT22;44276;49.534;6.378;2023-08-06T00:58:41;14.20;99.90
53776;DHT22;44276;49.534;6.378;2023-08-06T01:01:09;14.10;99.90
53776;DHT22;44276;49.534;6.378;2023-08-06T01:03:38;14.10;99.90
53776;DHT22;44276;49.534;6.378;2023-08-06T01:06:07;14.10;99.90
53776;DHT22;44276;49.534;6.378;2023-08-06T01:08:46;14.10;99.90
53776;DHT22;44276;49.534;6.378;2023-08-06T01:11:31;14.10;99.90
53776;DHT22;44276;49.534;6.378;2023-08-06T01:14:11;14.10;99.90
53776;DHT22;44276;49.534;6.378;2023-08-06T01:16:46;14.10;99.90
53776;DHT22;44276;49.534;6.378;2023-08-06T01:19:17;14.10;99.90
53776;DHT22;44276;49.534;6.378;2023-08-06T01:21:47;14.00;99.90
53776;DHT22;44276;49.534;6.378;2023-08-06T01:24:16;14.00;99.90
53776;DHT22;44276;49.534;6.378;2023-08-06T01:26:51;14.00;99.90
53776;DHT22;44276;49.534;6.378;2023-08-06T01:29:33;14.00;99.90
53776;DHT22;44276;49.534;6.378;2023-08-06T01:32:14;14.00;99.90
53776;DHT22;44276;49.534;6.378;2023-08-06T01:34:43;14.00;99.90
53776;DHT22;44276;49.534;6.378;2023-08-06T01:37:15;14.00;99.90
53776;DHT22;44276;49.534;6.378;2023-08-06T01:39:43;14.00;99.90
53776;DHT22;44276;49.534;6.378;2023-08-06T01:42:12;14.00;99.90
53776;DHT22;44276;49.534;6.378;2023-08-06T01:44:40;14.00;99.90
53776;DHT22;44276;49.534;6.378;2023-08-06T01:47:08;14.00;99.90
53776;DHT22;44276;49.534;6.378;2023-08-06T01:49:36;14.00;99.90
53776;DHT22;44276;49.534;6.378;2023-08-06T01:52:05;13.90;99.90
53776;DHT22;44276;49.534;6.378;2023-08-06T01:54:35;13.90;99.90
53776;DHT22;44276;49.534;6.378;2023-08-06T01:57:04;13.90;99.90
53776;DHT22;44276;49.534;6.378;2023-08-06T01:59:33;13.90;99.90
53776;DHT22;44276;49.534;6.378;2023-08-06T02:02:01;13.90;99.90
53776;DHT22;44276;49.534;6.378;2023-08-06T02:04:29;13.80;99.90
53776;DHT22;44276;49.534;6.378;2023-08-06T02:06:58;13.90;99.90
53776;DHT22;44276;49.534;6.378;2023-08-06T02:09:26;13.80;99.90
53776;DHT22;44276;49.534;6.378;2023-08-06T02:11:55;13.90;99.90
53776;DHT22;44276;49.534;6.378;2023-08-06T02:14:24;13.80;99.90
53776;DHT22;44276;49.534;6.378;2023-08-06T02:16:52;13.80;99.90
53776;DHT22;44276;49.534;6.378;2023-08-06T02:19:20;13.90;99.90
53776;DHT22;44276;49.534;6.378;2023-08-06T02:21:48;13.80;99.90
53776;DHT22;44276;49.534;6.378;2023-08-06T02:24:17;13.80;99.90
53776;DHT22;44276;49.534;6.378;2023-08-06T02:26:45;13.80;99.90
53776;DHT22;44276;49.534;6.378;2023-08-06T02:29:17;13.80;99.90
53776;DHT22;44276;49.534;6.378;2023-08-06T02:31:45;13.90;99.90
53776;DHT22;44276;49.534;6.378;2023-08-06T02:34:13;13.90;99.90
53776;DHT22;44276;49.534;6.378;2023-08-06T02:36:41;13.90;99.90
53776;DHT22;44276;49.534;6.378;2023-08-06T02:39:10;13.90;99.90
53776;DHT22;44276;49.534;6.378;2023-08-06T02:41:38;13.80;99.90
53776;DHT22;44276;49.534;6.378;2023-08-06T02:44:07;13.80;99.90
53776;DHT22;44276;49.534;6.378;2023-08-06T02:46:36;13.80;99.90
53776;DHT22;44276;49.534;6.378;2023-08-06T02:49:04;13.80;99.90
53776;DHT22;44276;49.534;6.378;2023-08-06T02:51:34;13.90;99.90
53776;DHT22;44276;49.534;6.378;2023-08-06T02:54:02;13.90;99.90
53776;DHT22;44276;49.534;6.378;2023-08-06T02:56:30;13.90;99.90
53776;DHT22;44276;49.534;6.378;2023-08-06T02:58:59;13.90;99.90
53776;DHT22;44276;49.534;6.378;2023-08-06T03:01:27;13.90;99.90
53776;DHT22;44276;49.534;6.378;2023-08-06T03:03:57;13.90;99.90
53776;DHT22;44276;49.534;6.378;2023-08-06T03:06:25;13.90;99.90
53776;DHT22;44276;49.534;6.378;2023-08-06T03:08:54;13.90;99.90
53776;DHT22;44276;49.534;6.378;2023-08-06T03:11:22;13.90;99.90
53776;DHT22;44276;49.534;6.378;2023-08-06T03:13:50;13.90;99.90
53776;DHT22;44276;49.534;6.378;2023-08-06T03:16:18;13.90;99.90
53776;DHT22;44276;49.534;6.378;2023-08-06T03:18:47;14.00;99.90
53776;DHT22;44276;49.534;6.378;2023-08-06T03:21:17;13.90;99.90
53776;DHT22;44276;49.534;6.378;2023-08-06T03:23:47;13.90;99.90
53776;DHT22;44276;49.534;6.378;2023-08-06T03:26:16;13.90;99.90
53776;DHT22;44276;49.534;6.378;2023-08-06T03:28:44;13.90;99.90
53776;DHT22;44276;49.534;6.378;2023-08-06T03:31:12;13.90;99.90
53776;DHT22;44276;49.534;6.378;2023-08-06T03:33:40;13.90;99.90
53776;DHT22;44276;49.534;6.378;2023-08-06T03:36:09;13.90;99.90
53776;DHT22;44276;49.534;6.378;2023-08-06T03:38:38;13.90;99.90
53776;DHT22;44276;49.534;6.378;2023-08-06T03:41:06;13.90;99.90
53776;DHT22;44276;49.534;6.378;2023-08-06T03:43:34;14.00;99.90
53776;DHT22;44276;49.534;6.378;2023-08-06T03:46:03;13.90;99.90
53776;DHT22;44276;49.534;6.378;2023-08-06T03:48:31;14.00;99.90
53776;DHT22;44276;49.534;6.378;2023-08-06T03:50:59;14.00;99.90
53776;DHT22;44276;49.534;6.378;2023-08-06T03:53:28;14.00;99.90
53776;DHT22;44276;49.534;6.378;2023-08-06T03:55:58;14.00;99.90
53776;DHT22;44276;49.534;6.378;2023-08-06T03:58:27;14.00;99.90
53776;DHT22;44276;49.534;6.378;2023-08-06T04:00:59;14.00;99.90
53776;DHT22;44276;49.534;6.378;2023-08-06T04:03:28;14.00;99.90
53776;DHT22;44276;49.534;6.378;2023-08-06T04:05:56;13.90;99.90
53776;DHT22;44276;49.534;6.378;2023-08-06T04:08:24;13.90;99.90
53776;DHT22;44276;49.534;6.378;2023-08-06T04:10:53;14.00;99.90
53776;DHT22;44276;49.534;6.378;2023-08-06T04:13:22;13.90;99.90
53776;DHT22;44276;49.534;6.378;2023-08-06T04:15:50;13.90;99.90
53776;DHT22;44276;49.534;6.378;2023-08-06T04:18:20;13.90;99.90
53776;DHT22;44276;49.534;6.378;2023-08-06T04:20:48;13.90;99.90
53776;DHT22;44276;49.534;6.378;2023-08-06T04:23:16;14.00;99.90
53776;DHT22;44276;49.534;6.378;2023-08-06T04:25:45;14.00;99.90
53776;DHT22;44276;49.534;6.378;2023-08-06T04:28:13;14.00;99.90
53776;DHT22;44276;49.534;6.378;2023-08-06T04:30:42;14.00;99.90
53776;DHT22;44276;49.534;6.378;2023-08-06T04:33:10;14.00;99.90
53776;DHT22;44276;49.534;6.378;2023-08-06T04:35:39;14.00;99.90
53776;DHT22;44276;49.534;6.378;2023-08-06T04:38:07;14.00;99.90
53776;DHT22;44276;49.534;6.378;2023-08-06T04:40:35;14.00;99.90
53776;DHT22;44276;49.534;6.378;2023-08-06T04:43:04;14.10;99.90
53776;DHT22;44276;49.534;6.378;2023-08-06T04:45:32;14.10;99.90
53776;DHT22;44276;49.534;6.378;2023-08-06T04:48:01;14.00;99.90
53776;DHT22;44276;49.534;6.378;2023-08-06T04:50:29;14.00;99.90
53776;DHT22;44276;49.534;6.378;2023-08-06T04:52:58;14.00;99.90
53776;DHT22;44276;49.534;6.378;2023-08-06T04:55:26;14.00;99.90
53776;DHT22;44276;49.534;6.378;2023-08-06T04:57:54;14.10;99.90
53776;DHT22;44276;49.534;6.378;2023-08-06T05:00:22;14.10;99.90
53776;DHT22;44276;49.534;6.378;2023-08-06T05:02:50;14.10;99.90
53776;DHT22;44276;49.534;6.378;2023-08-06T05:05:19;14.10;99.90
53776;DHT22;44276;49.534;6.378;2023-08-06T05:07:49;14.20;99.90
53776;DHT22;44276;49.534;6.378;2023-08-06T05:10:17;14.20;99.90
53776;DHT22;44276;49.534;6.378;2023-08-06T05:12:46;14.20;99.90
53776;DHT22;44276;49.534;6.378;2023-08-06T05:15:14;14.20;99.90
53776;DHT22;44276;49.534;6.378;2023-08-06T05:17:42;14.30;99.90
53776;DHT22;44276;49.534;6.378;2023-08-06T05:20:11;14.30;99.90
53776;DHT22;44276;49.534;6.378;2023-08-06T05:22:41;14.40;99.90
53776;DHT22;44276;49.534;6.378;2023-08-06T05:25:09;14.40;99.90
53776;DHT22;44276;49.534;6.378;2023-08-06T05:27:37;14.40;99.90
53776;DHT22;44276;49.534;6.378;2023-08-06T05:30:07;14.50;99.90
53776;DHT22;44276;49.534;6.378;2023-08-06T05:32:35;14.50;99.90
53776;DHT22;44276;49.534;6.378;2023-08-06T05:35:04;14.50;99.90
53776;DHT22;44276;49.534;6.378;2023-08-06T05:37:33;14.50;99.90
53776;DHT22;44276;49.534;6.378;2023-08-06T05:40:04;14.50;99.90
53776;DHT22;44276;49.534;6.378;2023-08-06T05:42:32;14.60;99.90
53776;DHT22;44276;49.534;6.378;2023-08-06T05:45:00;14.70;99.90
53776;DHT22;44276;49.534;6.378;2023-08-06T05:47:29;14.70;99.90
53776;DHT22;44276;49.534;6.378;2023-08-06T05:49:57;14.80;99.90
53776;DHT22;44276;49.534;6.378;2023-08-06T05:52:25;14.90;99.90
53776;DHT22;44276;49.534;6.378;2023-08-06T05:54:53;15.00;99.90
53776;DHT22;44276;49.534;6.378;2023-08-06T05:57:23;15.10;99.90
53776;DHT22;44276;49.534;6.378;2023-08-06T05:59:51;15.10;99.90
53776;DHT22;44276;49.534;6.378;2023-08-06T06:02:19;15.00;99.90
53776;DHT22;44276;49.534;6.378;2023-08-06T06:04:47;14.80;99.90
53776;DHT22;44276;49.534;6.378;2023-08-06T06:07:16;14.70;99.90
53776;DHT22;44276;49.534;6.378;2023-08-06T06:09:44;14.50;99.90
53776;DHT22;44276;49.534;6.378;2023-08-06T06:12:12;14.50;99.90
53776;DHT22;44276;49.534;6.378;2023-08-06T06:14:41;14.50;99.90
53776;DHT22;44276;49.534;6.378;2023-08-06T06:17:09;14.60;99.90
53776;DHT22;44276;49.534;6.378;2023-08-06T06:19:37;14.70;99.90
53776;DHT22;44276;49.534;6.378;2023-08-06T06:22:06;14.80;99.90
53776;DHT22;44276;49.534;6.378;2023-08-06T06:24:34;14.80;99.90
53776;DHT22;44276;49.534;6.378;2023-08-06T06:27:02;14.80;99.90
53776;DHT22;44276;49.534;6.378;2023-08-06T06:29:31;14.90;99.90
53776;DHT22;44276;49.534;6.378;2023-08-06T06:32:00;15.00;99.90
53776;DHT22;44276;49.534;6.378;2023-08-06T06:34:28;15.20;99.90
53776;DHT22;44276;49.534;6.378;2023-08-06T06:36:56;15.20;99.90
53776;DHT22;44276;49.534;6.378;2023-08-06T06:39:25;15.20;99.90
53776;DHT22;44276;49.534;6.378;2023-08-06T06:41:53;15.20;99.90
53776;DHT22;44276;49.534;6.378;2023-08-06T06:44:21;15.20;99.90
53776;DHT22;44276;49.534;6.378;2023-08-06T06:46:50;15.30;99.90
53776;DHT22;44276;49.534;6.378;2023-08-06T06:49:19;15.30;99.90
53776;DHT22;44276;49.534;6.378;2023-08-06T06:51:47;15.30;99.90
53776;DHT22;44276;49.534;6.378;2023-08-06T06:54:16;15.40;99.90
53776;DHT22;44276;49.534;6.378;2023-08-06T06:56:44;15.40;99.90
53776;DHT22;44276;49.534;6.378;2023-08-06T06:59:12;15.40;99.90
53776;DHT22;44276;49.534;6.378;2023-08-06T07:01:40;15.40;99.90
53776;DHT22;44276;49.534;6.378;2023-08-06T07:04:08;15.40;99.90
53776;DHT22;44276;49.534;6.378;2023-08-06T07:06:38;15.40;99.90
53776;DHT22;44276;49.534;6.378;2023-08-06T07:09:06;15.40;99.90
53776;DHT22;44276;49.534;6.378;2023-08-06T07:11:34;15.30;99.90
53776;DHT22;44276;49.534;6.378;2023-08-06T07:14:02;15.20;99.90
53776;DHT22;44276;49.534;6.378;2023-08-06T07:16:30;15.20;99.90
53776;DHT22;44276;49.534;6.378;2023-08-06T07:18:59;15.10;99.90
53776;DHT22;44276;49.534;6.378;2023-08-06T07:21:27;15.00;99.90
53776;DHT22;44276;49.534;6.378;2023-08-06T07:23:56;14.90;99.90
53776;DHT22;44276;49.534;6.378;2023-08-06T07:26:26;14.80;99.90
53776;DHT22;44276;49.534;6.378;2023-08-06T07:28:54;14.70;99.90
53776;DHT22;44276;49.534;6.378;2023-08-06T07:31:22;14.60;99.90
53776;DHT22;44276;49.534;6.378;2023-08-06T07:33:50;14.60;99.90
53776;DHT22;44276;49.534;6.378;2023-08-06T07:36:19;14.50;99.90
53776;DHT22;44276;49.534;6.378;2023-08-06T07:38:47;14.50;99.90
53776;DHT22;44276;49.534;6.378;2023-08-06T07:41:19;14.50;99.90
53776;DHT22;44276;49.534;6.378;2023-08-06T07:43:47;14.40;99.90
53776;DHT22;44276;49.534;6.378;2023-08-06T07:46:16;14.40;99.90
53776;DHT22;44276;49.534;6.378;2023-08-06T07:48:44;14.40;99.90
53776;DHT22;44276;49.534;6.378;2023-08-06T07:51:12;14.40;99.90
53776;DHT22;44276;49.534;6.378;2023-08-06T07:53:40;14.40;99.90
53776;DHT22;44276;49.534;6.378;2023-08-06T07:56:08;14.40;99.90
53776;DHT22;44276;49.534;6.378;2023-08-06T07:58:38;14.40;99.90
53776;DHT22;44276;49.534;6.378;2023-08-06T08:01:06;14.40;99.90
53776;DHT22;44276;49.534;6.378;2023-08-06T08:03:34;14.40;99.90
53776;DHT22;44276;49.534;6.378;2023-08-06T08:06:03;14.30;99.90
53776;DHT22;44276;49.534;6.378;2023-08-06T08:08:31;14.30;99.90
53776;DHT22;44276;49.534;6.378;2023-08-06T08:11:02;14.40;99.90
53776;DHT22;44276;49.534;6.378;2023-08-06T08:13:30;14.50;99.90
53776;DHT22;44276;49.534;6.378;2023-08-06T08:16:00;14.40;99.90
53776;DHT22;44276;49.534;6.378;2023-08-06T08:18:30;14.40;99.90
53776;DHT22;44276;49.534;6.378;2023-08-06T08:20:58;14.40;99.90
53776;DHT22;44276;49.534;6.378;2023-08-06T08:23:26;14.40;99.90
53776;DHT22;44276;49.534;6.378;2023-08-06T08:25:55;14.50;99.90
53776;DHT22;44276;49.534;6.378;2023-08-06T08:28:23;14.50;99.90
53776;DHT22;44276;49.534;6.378;2023-08-06T08:30:51;14.50;99.90
53776;DHT22;44276;49.534;6.378;2023-08-06T08:33:22;14.70;99.90
53776;DHT22;44276;49.534;6.378;2023-08-06T08:35:50;14.80;99.90
53776;DHT22;44276;49.534;6.378;2023-08-06T08:38:18;14.90;99.90
53776;DHT22;44276;49.534;6.378;2023-08-06T08:40:47;15.00;99.90
53776;DHT22;44276;49.534;6.378;2023-08-06T08:43:21;15.10;99.90
53776;DHT22;44276;49.534;6.378;2023-08-06T08:45:50;15.10;99.90
53776;DHT22;44276;49.534;6.378;2023-08-06T08:48:23;15.10;99.90
53776;DHT22;44276;49.534;6.378;2023-08-06T08:50:51;15.30;99.90
53776;DHT22;44276;49.534;6.378;2023-08-06T08:53:21;15.60;99.90
53776;DHT22;44276;49.534;6.378;2023-08-06T08:55:49;15.80;99.90
53776;DHT22;44276;49.534;6.378;2023-08-06T08:58:18;16.10;99.90
53776;DHT22;44276;49.534;6.378;2023-08-06T09:00:46;16.60;99.90
53776;DHT22;44276;49.534;6.378;2023-08-06T09:03:16;16.90;99.90
53776;DHT22;44276;49.534;6.378;2023-08-06T09:05:51;17.40;96.00
53776;DHT22;44276;49.534;6.378;2023-08-06T09:08:26;17.50;96.40
53776;DHT22;44276;49.534;6.378;2023-08-06T09:11:10;17.90;97.80
53776;DHT22;44276;49.534;6.378;2023-08-06T09:13:38;18.00;82.70
53776;DHT22;44276;49.534;6.378;2023-08-06T09:16:07;18.10;75.40
53776;DHT22;44276;49.534;6.378;2023-08-06T09:18:39;18.10;70.60
53776;DHT22;44276;49.534;6.378;2023-08-06T09:21:13;18.00;69.90
53776;DHT22;44276;49.534;6.378;2023-08-06T09:23:42;18.00;73.70
53776;DHT22;44276;49.534;6.378;2023-08-06T09:26:14;18.10;68.90
53776;DHT22;44276;49.534;6.378;2023-08-06T09:28:42;18.30;66.00
53776;DHT22;44276;49.534;6.378;2023-08-06T09:31:11;18.50;64.90
53776;DHT22;44276;49.534;6.378;2023-08-06T09:33:39;18.60;62.10
53776;DHT22;44276;49.534;6.378;2023-08-06T09:36:09;18.90;59.40
53776;DHT22;44276;49.534;6.378;2023-08-06T09:38:39;19.40;52.20
53776;DHT22;44276;49.534;6.378;2023-08-06T09:41:08;20.00;48.50
53776;DHT22;44276;49.534;6.378;2023-08-06T09:43:40;19.50;47.90
53776;DHT22;44276;49.534;6.378;2023-08-06T09:46:13;18.90;50.80
53776;DHT22;44276;49.534;6.378;2023-08-06T09:48:45;18.60;69.30
53776;DHT22;44276;49.534;6.378;2023-08-06T09:51:16;18.40;99.90
53776;DHT22;44276;49.534;6.378;2023-08-06T09:53:47;18.40;72.00
53776;DHT22;44276;49.534;6.378;2023-08-06T09:56:17;18.50;74.90
53776;DHT22;44276;49.534;6.378;2023-08-06T09:58:47;18.80;74.80
53776;DHT22;44276;49.534;6.378;2023-08-06T10:01:18;18.70;71.40
53776;DHT22;44276;49.534;6.378;2023-08-06T10:03:47;18.00;85.90
53776;DHT22;44276;49.534;6.378;2023-08-06T10:06:20;17.90;91.30
53776;DHT22;44276;49.534;6.378;2023-08-06T10:08:50;17.90;87.40
53776;DHT22;44276;49.534;6.378;2023-08-06T10:11:21;17.60;91.50
53776;DHT22;44276;49.534;6.378;2023-08-06T10:13:55;17.40;99.90
53776;DHT22;44276;49.534;6.378;2023-08-06T10:16:28;17.20;99.90
53776;DHT22;44276;49.534;6.378;2023-08-06T10:18:58;16.90;99.90
53776;DHT22;44276;49.534;6.378;2023-08-06T10:21:30;16.80;99.90
53776;DHT22;44276;49.534;6.378;2023-08-06T10:23:59;16.80;99.90
53776;DHT22;44276;49.534;6.378;2023-08-06T10:26:29;16.60;99.90
53776;DHT22;44276;49.534;6.378;2023-08-06T10:28:57;16.90;99.90
53776;DHT22;44276;49.534;6.378;2023-08-06T10:31:53;17.10;99.90
53776;DHT22;44276;49.534;6.378;2023-08-06T10:34:22;17.70;96.10
53776;DHT22;44276;49.534;6.378;2023-08-06T10:36:54;18.20;79.70
53776;DHT22;44276;49.534;6.378;2023-08-06T10:39:23;18.30;77.70
53776;DHT22;44276;49.534;6.378;2023-08-06T10:41:57;18.40;71.40
53776;DHT22;44276;49.534;6.378;2023-08-06T10:44:26;18.60;70.00
53776;DHT22;44276;49.534;6.378;2023-08-06T10:47:27;18.20;77.90
53776;DHT22;44276;49.534;6.378;2023-08-06T10:49:55;17.10;99.90
53776;DHT22;44276;49.534;6.378;2023-08-06T10:52:27;16.00;99.90
53776;DHT22;44276;49.534;6.378;2023-08-06T10:54:55;15.30;99.90
53776;DHT22;44276;49.534;6.378;2023-08-06T10:57:24;15.10;99.90
53776;DHT22;44276;49.534;6.378;2023-08-06T10:59:52;15.10;99.90
53776;DHT22;44276;49.534;6.378;2023-08-06T11:02:41;15.40;99.90
53776;DHT22;44276;49.534;6.378;2023-08-06T11:05:11;15.30;99.90
53776;DHT22;44276;49.534;6.378;2023-08-06T11:07:41;15.40;99.90
53776;DHT22;44276;49.534;6.378;2023-08-06T11:10:12;15.70;99.90
53776;DHT22;44276;49.534;6.378;2023-08-06T11:12:41;16.80;99.90
53776;DHT22;44276;49.534;6.378;2023-08-06T11:15:10;17.20;99.90
53776;DHT22;44276;49.534;6.378;2023-08-06T11:17:40;17.80;99.90
53776;DHT22;44276;49.534;6.378;2023-08-06T11:20:10;20.10;87.30
53776;DHT22;44276;49.534;6.378;2023-08-06T11:22:43;21.80;50.00
53776;DHT22;44276;49.534;6.378;2023-08-06T11:25:11;23.00;38.50
53776;DHT22;44276;49.534;6.378;2023-08-06T11:27:40;22.90;34.30
53776;DHT22;44276;49.534;6.378;2023-08-06T11:30:11;23.00;33.80
53776;DHT22;44276;49.534;6.378;2023-08-06T11:32:46;23.70;31.80
53776;DHT22;44276;49.534;6.378;2023-08-06T11:35:16;22.70;31.80
53776;DHT22;44276;49.534;6.378;2023-08-06T11:37:46;22.30;34.80
53776;DHT22;44276;49.534;6.378;2023-08-06T11:40:15;21.40;38.20
53776;DHT22;44276;49.534;6.378;2023-08-06T11:42:46;20.20;44.40
53776;DHT22;44276;49.534;6.378;2023-08-06T11:45:15;18.90;54.90
53776;DHT22;44276;49.534;6.378;2023-08-06T11:47:50;17.80;66.90
53776;DHT22;44276;49.534;6.378;2023-08-06T11:50:23;18.00;63.60
53776;DHT22;44276;49.534;6.378;2023-08-06T11:52:57;19.00;56.70
53776;DHT22;44276;49.534;6.378;2023-08-06T11:55:28;19.60;51.00
53776;DHT22;44276;49.534;6.378;2023-08-06T11:57:57;20.40;43.30
53776;DHT22;44276;49.534;6.378;2023-08-06T12:00:26;21.50;38.00
53776;DHT22;44276;49.534;6.378;2023-08-06T12:02:56;22.60;33.90
53776;DHT22;44276;49.534;6.378;2023-08-06T12:05:30;23.00;29.40
53776;DHT22;44276;49.534;6.378;2023-08-06T12:08:02;21.30;38.70
53776;DHT22;44276;49.534;6.378;2023-08-06T12:10:31;19.20;67.80
53776;DHT22;44276;49.534;6.378;2023-08-06T12:13:01;17.80;99.90
53776;DHT22;44276;49.534;6.378;2023-08-06T12:15:31;17.40;99.90
53776;DHT22;44276;49.534;6.378;2023-08-06T12:17:59;17.90;99.90
53776;DHT22;44276;49.534;6.378;2023-08-06T12:20:29;18.80;77.40
53776;DHT22;44276;49.534;6.378;2023-08-06T12:22:57;19.30;67.70
53776;DHT22;44276;49.534;6.378;2023-08-06T12:25:28;20.30;51.90
53776;DHT22;44276;49.534;6.378;2023-08-06T12:27:56;20.80;49.30
53776;DHT22;44276;49.534;6.378;2023-08-06T12:30:25;21.00;44.60
53776;DHT22;44276;49.534;6.378;2023-08-06T12:32:53;20.70;43.20
53776;DHT22;44276;49.534;6.378;2023-08-06T12:35:21;20.80;41.80
53776;DHT22;44276;49.534;6.378;2023-08-06T12:37:52;21.60;37.50
53776;DHT22;44276;49.534;6.378;2023-08-06T12:40:21;21.30;39.20
53776;DHT22;44276;49.534;6.378;2023-08-06T12:43:04;21.60;35.40
53776;DHT22;44276;49.534;6.378;2023-08-06T12:45:32;20.60;36.90
53776;DHT22;44276;49.534;6.378;2023-08-06T12:48:01;19.90;40.20
53776;DHT22;44276;49.534;6.378;2023-08-06T12:50:30;19.90;39.90
53776;DHT22;44276;49.534;6.378;2023-08-06T12:52:59;19.80;43.00
53776;DHT22;44276;49.534;6.378;2023-08-06T12:55:28;19.50;43.10
53776;DHT22;44276;49.534;6.378;2023-08-06T12:57:59;19.30;44.60
53776;DHT22;44276;49.534;6.378;2023-08-06T13:00:29;19.30;41.70
53776;DHT22;44276;49.534;6.378;2023-08-06T13:02:58;19.50;42.00
53776;DHT22;44276;49.534;6.378;2023-08-06T13:05:26;19.50;39.60
53776;DHT22;44276;49.534;6.378;2023-08-06T13:07:55;19.30;43.00
53776;DHT22;44276;49.534;6.378;2023-08-06T13:10:24;18.50;48.00
53776;DHT22;44276;49.534;6.378;2023-08-06T13:12:54;17.80;73.70
53776;DHT22;44276;49.534;6.378;2023-08-06T13:15:22;17.20;75.80
53776;DHT22;44276;49.534;6.378;2023-08-06T13:17:52;17.20;70.00
53776;DHT22;44276;49.534;6.378;2023-08-06T13:20:21;17.40;76.10
53776;DHT22;44276;49.534;6.378;2023-08-06T13:22:50;17.60;79.00
53776;DHT22;44276;49.534;6.378;2023-08-06T13:25:20;17.70;83.70
53776;DHT22;44276;49.534;6.378;2023-08-06T13:27:50;17.90;68.40
53776;DHT22;44276;49.534;6.378;2023-08-06T13:30:19;18.50;59.50
53776;DHT22;44276;49.534;6.378;2023-08-06T13:32:50;19.30;51.50
53776;DHT22;44276;49.534;6.378;2023-08-06T13:35:20;19.40;45.70
53776;DHT22;44276;49.534;6.378;2023-08-06T13:37:49;19.40;46.90
53776;DHT22;44276;49.534;6.378;2023-08-06T13:40:17;19.70;43.00
53776;DHT22;44276;49.534;6.378;2023-08-06T13:42:46;19.80;42.10
53776;DHT22;44276;49.534;6.378;2023-08-06T13:45:14;20.00;41.70
53776;DHT22;44276;49.534;6.378;2023-08-06T13:47:43;19.70;38.60
53776;DHT22;44276;49.534;6.378;2023-08-06T13:50:12;19.70;39.70
53776;DHT22;44276;49.534;6.378;2023-08-06T13:52:41;19.30;38.80
53776;DHT22;44276;49.534;6.378;2023-08-06T13:55:10;18.80;38.60
53776;DHT22;44276;49.534;6.378;2023-08-06T13:57:39;18.40;40.20
53776;DHT22;44276;49.534;6.378;2023-08-06T14:00:08;18.30;43.00
53776;DHT22;44276;49.534;6.378;2023-08-06T14:02:37;18.70;40.80
53776;DHT22;44276;49.534;6.378;2023-08-06T14:05:06;18.90;40.00
53776;DHT22;44276;49.534;6.378;2023-08-06T14:07:35;18.50;40.90
53776;DHT22;44276;49.534;6.378;2023-08-06T14:10:06;18.00;46.50
53776;DHT22;44276;49.534;6.378;2023-08-06T14:12:36;17.10;95.90
53776;DHT22;44276;49.534;6.378;2023-08-06T14:15:04;16.00;99.90
53776;DHT22;44276;49.534;6.378;2023-08-06T14:17:33;15.70;99.90
53776;DHT22;44276;49.534;6.378;2023-08-06T14:20:03;16.30;99.90
53776;DHT22;44276;49.534;6.378;2023-08-06T14:22:34;16.80;99.90
53776;DHT22;44276;49.534;6.378;2023-08-06T14:25:05;17.00;96.80
53776;DHT22;44276;49.534;6.378;2023-08-06T14:27:34;17.80;90.10
53776;DHT22;44276;49.534;6.378;2023-08-06T14:30:03;18.70;65.60
53776;DHT22;44276;49.534;6.378;2023-08-06T14:32:32;19.00;65.30
53776;DHT22;44276;49.534;6.378;2023-08-06T14:35:02;19.70;58.70
53776;DHT22;44276;49.534;6.378;2023-08-06T14:37:30;19.50;46.30
53776;DHT22;44276;49.534;6.378;2023-08-06T14:39:59;18.90;46.40
53776;DHT22;44276;49.534;6.378;2023-08-06T14:42:28;18.50;50.20
53776;DHT22;44276;49.534;6.378;2023-08-06T14:44:57;18.10;56.50
53776;DHT22;44276;49.534;6.378;2023-08-06T14:47:26;18.00;59.70
53776;DHT22;44276;49.534;6.378;2023-08-06T14:49:54;17.90;62.70
53776;DHT22;44276;49.534;6.378;2023-08-06T14:52:22;18.10;54.60
53776;DHT22;44276;49.534;6.378;2023-08-06T14:54:51;18.30;54.70
53776;DHT22;44276;49.534;6.378;2023-08-06T14:57:22;18.60;53.70
53776;DHT22;44276;49.534;6.378;2023-08-06T14:59:56;18.50;49.70
53776;DHT22;44276;49.534;6.378;2023-08-06T15:02:25;18.30;52.00
53776;DHT22;44276;49.534;6.378;2023-08-06T15:04:54;18.30;51.30
53776;DHT22;44276;49.534;6.378;2023-08-06T15:07:23;18.10;47.40
53776;DHT22;44276;49.534;6.378;2023-08-06T15:09:51;17.80;48.50
53776;DHT22;44276;49.534;6.378;2023-08-06T15:12:40;17.60;52.80
53776;DHT22;44276;49.534;6.378;2023-08-06T15:15:13;17.40;54.30
53776;DHT22;44276;49.534;6.378;2023-08-06T15:17:42;17.30;62.10
53776;DHT22;44276;49.534;6.378;2023-08-06T15:20:12;17.70;56.50
53776;DHT22;44276;49.534;6.378;2023-08-06T15:22:40;18.70;47.50
53776;DHT22;44276;49.534;6.378;2023-08-06T15:25:09;19.30;42.00
53776;DHT22;44276;49.534;6.378;2023-08-06T15:27:37;19.70;37.80
53776;DHT22;44276;49.534;6.378;2023-08-06T15:30:07;19.50;39.30
53776;DHT22;44276;49.534;6.378;2023-08-06T15:32:37;18.70;40.00
53776;DHT22;44276;49.534;6.378;2023-08-06T15:35:11;18.30;41.40
53776;DHT22;44276;49.534;6.378;2023-08-06T15:37:40;17.90;46.50
53776;DHT22;44276;49.534;6.378;2023-08-06T15:40:09;17.80;48.00
53776;DHT22;44276;49.534;6.378;2023-08-06T15:42:38;17.80;45.90
53776;DHT22;44276;49.534;6.378;2023-08-06T15:45:08;17.90;48.50